Smithfield, North Carolina
Current Conditions -  °F | °C
As of 10:55 AM on Friday 24 Oct 2014 (Local Time) from KJNX Reporting Station
Clear Clear  
Wind Chill: 61°   Ceiling: Unl
Heat Index: 61°   Visibility: 10mi
Dew Point: 45°   Wind: 7mph
Humidity: 55%   Direction: 20°NNE
Pressure: 30.05"   Gusts: NA
Location:  35.51°N, 78.35°W
Report Text: KJNX 241455Z AUTO 02006KT 10SM CLR 16/07 A3005 RMK AO2
Loading
Personal Weather Stations






























Interactive Weather Map New forecast layout! Learn more

10-Day Weather Forecast

Advertisements
Track Severe Weather on mobile